createdAt,value
2023-02-09T00:02:29.132Z,-0.3
2023-02-09T00:07:35.271Z,-0.3
2023-02-09T00:12:41.372Z,-1
2023-02-09T00:17:47.467Z,-0.3
2023-02-09T00:22:52.602Z,-1
2023-02-09T00:27:58.719Z,-0.3
2023-02-09T00:33:04.852Z,-0.6
2023-02-09T00:38:10.942Z,-0.6
2023-02-09T00:43:17.083Z,-0.3
2023-02-09T00:48:23.193Z,-1
2023-02-09T00:53:29.310Z,-0.6
2023-02-09T00:58:35.430Z,-0.6
2023-02-09T01:03:41.535Z,-0.3
2023-02-09T01:08:47.656Z,-0.3
2023-02-09T01:13:53.767Z,-0.6
2023-02-09T01:18:59.901Z,-1
2023-02-09T01:24:06.015Z,-1
2023-02-09T01:29:11.139Z,-0.6
2023-02-09T01:34:17.240Z,-1
2023-02-09T01:39:23.369Z,-1.3
2023-02-09T01:44:29.497Z,-0.3
2023-02-09T01:49:35.626Z,-1
2023-02-09T01:54:41.742Z,-1
2023-02-09T01:59:47.880Z,-0.6
2023-02-09T02:04:53.980Z,-1
2023-02-09T02:10:00.110Z,-1.3
2023-02-09T02:15:06.202Z,-0.3
2023-02-09T02:20:12.345Z,-1.3
2023-02-09T02:25:18.444Z,-1
2023-02-09T02:30:24.565Z,-1
2023-02-09T02:35:29.702Z,-1
2023-02-09T02:40:35.817Z,-1
2023-02-09T02:45:41.936Z,-0.6
2023-02-09T02:50:48.061Z,-1.3
2023-02-09T02:55:54.185Z,-1.3
2023-02-09T03:01:00.324Z,-1
2023-02-09T03:06:06.432Z,-1
2023-02-09T03:11:12.536Z,-1
2023-02-09T03:16:18.655Z,-1
2023-02-09T03:21:24.775Z,-1
2023-02-09T03:26:30.869Z,-1.6
2023-02-09T03:31:37.001Z,-1.6
2023-02-09T03:36:43.114Z,-0.3
2023-02-09T03:41:48.266Z,-0.6
2023-02-09T03:46:54.380Z,-1
2023-02-09T03:52:00.493Z,-1.6
2023-02-09T03:57:06.602Z,-1.3
2023-02-09T04:02:12.716Z,-1.3
2023-02-09T04:07:18.821Z,-1.3
2023-02-09T04:12:24.950Z,-1.6
2023-02-09T04:17:31.070Z,-1.3
2023-02-09T04:22:37.193Z,-1.3
2023-02-09T04:27:43.284Z,-1.9
2023-02-09T04:32:49.414Z,-1.3
2023-02-09T04:37:55.524Z,-1.6
2023-02-09T04:43:01.645Z,-1.3
2023-02-09T04:48:06.771Z,-0.6
2023-02-09T04:53:12.912Z,-1.6
2023-02-09T04:58:19.029Z,-1.3
2023-02-09T05:03:25.162Z,-1.3
2023-02-09T05:08:31.284Z,-1
2023-02-09T05:13:37.408Z,-1.6
2023-02-09T05:18:43.519Z,-1.3
2023-02-09T05:23:49.652Z,-1.6
2023-02-09T05:28:55.754Z,-1
2023-02-09T05:34:01.873Z,-1.6
2023-02-09T05:39:08.001Z,-1.6
2023-02-09T05:44:14.113Z,-1.6
2023-02-09T05:49:20.245Z,-1.6
2023-02-09T05:54:25.366Z,-1.3
2023-02-09T05:59:31.479Z,-1.6
2023-02-09T06:09:43.718Z,-1.9
2023-02-09T06:14:49.855Z,-1.3
2023-02-09T06:19:55.957Z,-1.3
2023-02-09T06:25:02.061Z,-1.3
2023-02-09T06:30:08.190Z,-1.9
2023-02-09T06:35:14.326Z,-1.3
2023-02-09T06:40:20.433Z,-1.6
2023-02-09T06:45:26.554Z,-1.3
2023-02-09T06:50:32.666Z,-1.6
2023-02-09T06:55:38.775Z,-1.6
2023-02-09T07:00:43.935Z,-1.6
2023-02-09T07:05:50.052Z,-1.3
2023-02-09T07:10:56.163Z,-1.6
2023-02-09T07:16:02.263Z,-1.6
2023-02-09T07:21:08.388Z,-1.6
2023-02-09T07:26:14.509Z,-1.6
2023-02-09T07:31:20.627Z,-1.6
2023-02-09T07:36:26.746Z,-1.9
2023-02-09T07:41:32.869Z,-1.6
2023-02-09T07:46:38.975Z,-1.9
2023-02-09T07:51:45.249Z,-1.9
2023-02-09T07:56:51.210Z,-1.9
2023-02-09T08:01:57.335Z,-1.9
2023-02-09T08:07:02.467Z,-1.9
2023-02-09T08:12:08.562Z,-1.6
2023-02-09T08:17:14.671Z,-1.9
2023-02-09T08:22:20.818Z,-1.9
2023-02-09T08:27:26.919Z,-1.6
2023-02-09T08:32:33.037Z,-1.9
2023-02-09T08:37:39.163Z,-1.9
2023-02-09T08:42:45.272Z,-1.9
2023-02-09T08:47:51.383Z,-1.6
2023-02-09T08:52:57.561Z,-2.3
2023-02-09T08:58:03.685Z,-1.3
2023-02-09T09:03:09.760Z,-1.9
2023-02-09T09:08:15.850Z,-1.3
2023-02-09T09:13:20.988Z,-1.6
2023-02-09T09:18:27.168Z,-1.9
2023-02-09T09:23:33.228Z,-1.6
2023-02-09T09:28:39.341Z,-1.9
2023-02-09T09:33:45.491Z,-1.6
2023-02-09T09:38:51.578Z,-2.3
2023-02-09T09:43:57.692Z,-1.6
2023-02-09T09:49:03.821Z,-1.6
2023-02-09T09:54:09.938Z,-1.3
2023-02-09T09:59:16.140Z,-1.9
2023-02-09T10:04:22.152Z,-1.3
2023-02-09T10:09:28.258Z,-1.6
2023-02-09T10:14:34.395Z,-1.9
2023-02-09T10:19:39.525Z,-1.3
2023-02-09T10:24:45.662Z,-1.6
2023-02-09T10:29:51.748Z,-1
2023-02-09T10:34:57.977Z,-1.3
2023-02-09T10:40:03.972Z,-1
2023-02-09T10:45:10.126Z,-1.3
2023-02-09T10:50:16.218Z,-1.3
2023-02-09T10:55:22.339Z,-1
2023-02-09T11:00:28.461Z,-1
2023-02-09T11:05:34.587Z,-1.3
2023-02-09T11:10:40.695Z,-1
2023-02-09T11:15:46.861Z,-1.3
2023-02-09T11:20:52.934Z,-1
2023-02-09T11:25:58.194Z,-1
2023-02-09T11:31:04.363Z,-1.3
2023-02-09T11:36:10.291Z,-1.3
2023-02-09T11:41:16.422Z,-0.6
2023-02-09T11:46:22.569Z,-0.6
2023-02-09T11:51:28.728Z,-1
2023-02-09T11:56:33.774Z,-1.3
2023-02-09T12:01:39.920Z,-0.6
2023-02-09T12:06:46.028Z,-0.6
2023-02-09T12:11:52.154Z,-1
2023-02-09T12:16:58.260Z,-1
2023-02-09T12:22:04.380Z,-0.3
2023-02-09T12:27:10.493Z,-0.3
2023-02-09T12:32:16.758Z,-0.6
2023-02-09T12:37:22.734Z,-1.3
2023-02-09T12:42:28.864Z,-0.6
2023-02-09T12:47:34.967Z,-0.3
2023-02-09T12:52:41.094Z,-0.6
2023-02-09T12:57:47.210Z,-0.3
2023-02-09T13:02:52.345Z,-0.6
2023-02-09T13:07:58.463Z,-0.6
2023-02-09T13:13:04.589Z,-0.6
2023-02-09T13:18:10.687Z,-0.6
2023-02-09T13:23:16.923Z,-1
2023-02-09T13:28:22.921Z,-0.3
2023-02-09T13:33:29.044Z,-0.3
2023-02-09T13:38:35.268Z,-1
2023-02-09T13:43:41.352Z,-0.3
2023-02-09T13:48:47.386Z,-0.3
2023-02-09T13:53:53.549Z,-0.6
2023-02-09T13:58:59.681Z,-0.6
2023-02-09T14:04:05.807Z,0
2023-02-09T14:09:10.930Z,-0.6
2023-02-09T14:14:17.063Z,-0.3
2023-02-09T14:19:23.174Z,-0.6
2023-02-09T14:24:29.290Z,-0.3
2023-02-09T14:29:35.414Z,-0.6
2023-02-09T14:34:41.499Z,-0.6
2023-02-09T14:39:47.614Z,0
2023-02-09T14:44:53.752Z,-0.3
2023-02-09T14:49:59.871Z,-1
2023-02-09T14:55:05.997Z,-0.6
2023-02-09T15:00:12.161Z,0
2023-02-09T15:05:18.256Z,-0.3
2023-02-09T15:10:24.343Z,-0.6
2023-02-09T15:15:31.625Z,-0.3
2023-02-09T15:20:35.585Z,-1
2023-02-09T15:25:41.720Z,-0.3
2023-02-09T15:30:47.831Z,-0.6
2023-02-09T15:35:54.003Z,-0.6
2023-02-09T15:41:00.075Z,0
2023-02-09T15:46:06.187Z,-0.3
2023-02-09T15:51:12.337Z,0
2023-02-09T15:56:18.433Z,-1
2023-02-09T16:01:24.590Z,0
2023-02-09T16:06:30.881Z,-0.6
2023-02-09T16:11:36.766Z,0
2023-02-09T16:16:42.882Z,-0.3
2023-02-09T16:21:48.047Z,-0.6
2023-02-09T16:26:54.137Z,-0.3
2023-02-09T16:32:00.264Z,-0.3
2023-02-09T16:37:06.370Z,-0.3
2023-02-09T16:42:12.484Z,-0.3
2023-02-09T16:47:18.602Z,0
2023-02-09T16:52:24.720Z,-1
2023-02-09T16:57:30.857Z,-0.3
2023-02-09T17:02:36.971Z,-0.6
2023-02-09T17:07:43.074Z,-0.3
2023-02-09T17:12:49.196Z,0
2023-02-09T17:17:55.479Z,-0.3
2023-02-09T17:23:01.434Z,-0.3
2023-02-09T17:28:07.550Z,0
2023-02-09T17:33:12.673Z,-0.6
2023-02-09T17:38:18.786Z,-0.3
2023-02-09T17:43:24.905Z,-0.3
2023-02-09T17:48:31.014Z,0
2023-02-09T17:53:37.134Z,-0.3
2023-02-09T17:58:43.252Z,-0.3
2023-02-09T18:03:49.367Z,0
2023-02-09T18:08:55.502Z,-0.6
2023-02-09T18:14:01.599Z,-0.3
2023-02-09T18:19:07.714Z,-0.6
2023-02-09T18:24:13.827Z,-0.3
2023-02-09T18:29:19.950Z,0
2023-02-09T18:34:26.060Z,0
2023-02-09T18:39:31.207Z,0
2023-02-09T18:44:37.318Z,-0.6
2023-02-09T18:49:43.421Z,-0.6
2023-02-09T18:54:49.545Z,-0.3
2023-02-09T18:59:55.668Z,-0.6
2023-02-09T19:05:01.772Z,0
2023-02-09T19:10:07.888Z,0
2023-02-09T19:15:24.363Z,0
2023-02-09T19:20:20.115Z,0
2023-02-09T19:25:26.247Z,-0.6
2023-02-09T19:30:32.358Z,-0.3
2023-02-09T19:35:38.491Z,-0.3
2023-02-09T19:40:44.608Z,-0.3
2023-02-09T19:45:50.783Z,0
2023-02-09T19:50:55.855Z,0.2
2023-02-09T19:56:02.015Z,0
2023-02-09T20:01:08.080Z,-0.3
2023-02-09T20:06:14.218Z,0
2023-02-09T20:11:20.343Z,0.2
2023-02-09T20:16:26.734Z,0
2023-02-09T20:21:32.769Z,-0.3
2023-02-09T20:26:38.861Z,-0.3
2023-02-09T20:31:44.975Z,-0.3
2023-02-09T20:36:51.000Z,0
2023-02-09T20:41:57.189Z,-0.3
2023-02-09T20:47:03.266Z,-0.3
2023-02-09T20:52:09.408Z,-0.6
2023-02-09T20:57:14.550Z,-1
2023-02-09T21:02:20.685Z,-0.3
2023-02-09T21:07:26.799Z,-0.3
2023-02-09T21:12:32.924Z,-1
2023-02-09T21:17:39.188Z,-0.3
2023-02-09T21:22:45.191Z,-0.6
2023-02-09T21:27:51.196Z,-0.3
2023-02-09T21:32:57.364Z,0
2023-02-09T21:38:03.323Z,-0.3
2023-02-09T21:43:09.619Z,-0.3
2023-02-09T21:48:16.593Z,-0.6
2023-02-09T21:53:21.789Z,-0.6
2023-02-09T21:58:27.775Z,-0.6
2023-02-09T22:03:32.916Z,-1
2023-02-09T22:08:39.051Z,-0.6
2023-02-09T22:13:45.171Z,-0.3
2023-02-09T22:18:51.268Z,-0.6
2023-02-09T22:23:57.393Z,-0.3
2023-02-09T22:29:03.505Z,-1
2023-02-09T22:34:09.621Z,-0.3
2023-02-09T22:39:15.746Z,-0.6
2023-02-09T22:44:21.896Z,-1.6
2023-02-09T22:49:28.008Z,-1.3
2023-02-09T22:54:34.138Z,-0.6
2023-02-09T22:59:40.264Z,-0.3
2023-02-09T23:04:46.355Z,-0.3
2023-02-09T23:09:51.498Z,-1
2023-02-09T23:14:57.618Z,-0.3
2023-02-09T23:20:03.736Z,-0.6
2023-02-09T23:25:09.851Z,-1
2023-02-09T23:30:15.960Z,-0.3
2023-02-09T23:35:22.088Z,-0.3
2023-02-09T23:40:28.190Z,-0.3
2023-02-09T23:45:34.340Z,-0.6
2023-02-09T23:50:40.423Z,-0.6
2023-02-09T23:55:46.534Z,-0.6
